Nikkei Verde — 3FEY7 — position and weather

sailwx.info

Track history (hours):
 
Tides and Currents Weather Stations Pressure Air Temp Water Temp Dewpoint Dewpoint Depression Visibility Wind Speed Wind Dir Waves Ship Positions

Nikkei Verde

Last reported at 2016-Jun-18 18:32 UTC. Time now 2016-Jul-01 06:21 UTC.
Position N 01°12' E 103°38'.
Warning: this ship's position is 12 days out of date.

Length 189 m; draft 7.7 m.

Type: Cargo ship. MMSI: 354519000.

Date/timePositionNaut miles runAvg speedWind from/ knotsBaromVisibWave heightAir tempDewpointWater temp
2016-Jun-18 18:32N 01°12' E 103°38'10 9.9
2016-Jun-18 17:33N 01°10' E 103°48'1111.2
2016-Jun-18 16:33N 01°15' E 103°58'  
2016-Jun-10 18:29N 30°21' E 122°55'1212.5
2016-Jun-10 17:31N 30°28' E 122°44'2512.2
2016-Jun-10 15:26N 30°33' E 122°15'18 9.5
2016-Jun-10 13:31N 30°29' E 121°54'9 9.8
2016-Jun-10 12:34N 30°29' E 121°43'1010.4
2016-Jun-10 11:33N 30°31' E 121°31'1312.7
2016-Jun-10 10:33N 30°35' E 121°17'2 1.6
2016-Jun-10 09:28N 30°36' E 121°15'0 0.1
2016-Jun-10 08:34N 30°36' E 121°15'0 0.0
2016-Jun-10 07:22N 30°36' E 121°15'0 0.0
2016-Jun-10 06:16N 30°35' E 121°15'0 0.0
2016-Jun-10 04:34N 30°36' E 121°15'0 0.1
2016-Jun-10 03:22N 30°36' E 121°15'0 0.1
2016-Jun-10 02:28N 30°36' E 121°15'0 0.0
2016-Jun-10 01:22N 30°36' E 121°16'0 0.0
2016-Jun-09 21:28N 30°36' E 121°16'0 0.2
2016-Jun-09 20:34N 30°36' E 121°15'0 0.1
2016-Jun-09 19:25N 30°36' E 121°15'0 0.0
2016-Jun-09 18:34N 30°35' E 121°15'0 0.0
2016-Jun-09 17:28N 30°35' E 121°15'0 0.0
2016-Jun-09 16:31N 30°35' E 121°15'0 0.0
2016-Jun-09 15:31N 30°36' E 121°15'0 0.1
2016-Jun-09 14:34N 30°36' E 121°15'0 0.0
2016-Jun-09 09:19N 30°36' E 121°16'0 0.2
2016-Jun-09 08:34N 30°36' E 121°15'0 0.1
2016-Jun-09 07:31N 30°35' E 121°15'0 0.0
2016-Jun-09 06:13N 30°35' E 121°15'0 0.0
2016-Jun-09 05:31N 30°35' E 121°15'0 0.0
2016-Jun-09 04:28N 30°36' E 121°15'0 0.2
2016-Jun-09 03:33N 30°36' E 121°15'3 3.3
2016-Jun-09 02:33N 30°33' E 121°13'  
Track history (hours):
 
Tides and Currents Weather Stations Pressure Air Temp Water Temp Dewpoint Dewpoint Depression Visibility Wind Speed Wind Dir Waves Ship Positions

Nikkei Verde

Last reported at 2016-Jun-18 18:32 UTC. Time now 2016-Jul-01 06:21 UTC.
Position N 01°12' E 103°38'.
Warning: this ship's position is 12 days out of date.

Length 189 m; draft 7.7 m.

Type: Cargo ship. MMSI: 354519000.

Date/timePositionNaut miles runAvg speedWind from/ knotsBaromVisibWave heightAir tempDewpointWater temp
2016-Jun-18 18:32N 01°12' E 103°38'10 9.9
2016-Jun-18 17:33N 01°10' E 103°48'1111.2
2016-Jun-18 16:33N 01°15' E 103°58'  
2016-Jun-10 18:29N 30°21' E 122°55'1212.5
2016-Jun-10 17:31N 30°28' E 122°44'2512.2
2016-Jun-10 15:26N 30°33' E 122°15'18 9.5
2016-Jun-10 13:31N 30°29' E 121°54'9 9.8
2016-Jun-10 12:34N 30°29' E 121°43'1010.4
2016-Jun-10 11:33N 30°31' E 121°31'1312.7
2016-Jun-10 10:33N 30°35' E 121°17'2 1.6
2016-Jun-10 09:28N 30°36' E 121°15'0 0.1
2016-Jun-10 08:34N 30°36' E 121°15'0 0.0
2016-Jun-10 07:22N 30°36' E 121°15'0 0.0
2016-Jun-10 06:16N 30°35' E 121°15'0 0.0
2016-Jun-10 04:34N 30°36' E 121°15'0 0.1
2016-Jun-10 03:22N 30°36' E 121°15'0 0.1
2016-Jun-10 02:28N 30°36' E 121°15'0 0.0
2016-Jun-10 01:22N 30°36' E 121°16'0 0.0
2016-Jun-09 21:28N 30°36' E 121°16'0 0.2
2016-Jun-09 20:34N 30°36' E 121°15'0 0.1
2016-Jun-09 19:25N 30°36' E 121°15'0 0.0
2016-Jun-09 18:34N 30°35' E 121°15'0 0.0
2016-Jun-09 17:28N 30°35' E 121°15'0 0.0
2016-Jun-09 16:31N 30°35' E 121°15'0 0.0
2016-Jun-09 15:31N 30°36' E 121°15'0 0.1
2016-Jun-09 14:34N 30°36' E 121°15'0 0.0
2016-Jun-09 09:19N 30°36' E 121°16'0 0.2
2016-Jun-09 08:34N 30°36' E 121°15'0 0.1
2016-Jun-09 07:31N 30°35' E 121°15'0 0.0
2016-Jun-09 06:13N 30°35' E 121°15'0 0.0
2016-Jun-09 05:31N 30°35' E 121°15'0 0.0
2016-Jun-09 04:28N 30°36' E 121°15'0 0.2
2016-Jun-09 03:33N 30°36' E 121°15'3 3.3
2016-Jun-09 02:33N 30°33' E 121°13'  

Dump ship's entire track history